Time;durP1;ratioP1;P1;durP2;ratioP2;P2;SDS_P1;SDS_P2;PMS_P1;PMS_P2;Temp;Humidity;BMP_temperature;BMP_pressure;BME280_temperature;BME280_humidity;BME280_pressure;Samples;Min_cycle;Max_cycle;Signal;HPM_P1;HPM_P2
2022/05/26 00:02:03;;;;;;;;;3.00;3.00;;;;;17.35;60.80;101959.78;5077649;28;45404;-67
2022/05/26 00:04:29;;;;;;;;;1.00;1.00;;;;;17.37;61.02;101974.22;5078534;27;45384;-68
2022/05/26 00:06:55;;;;;;;;;1.00;1.00;;;;;17.35;61.02;101971.63;5076835;28;45361;-70
2022/05/26 00:09:21;;;;;;;;;1.00;1.00;;;;;17.37;60.87;101966.84;5074335;27;45556;-69
2022/05/26 00:11:46;;;;;;;;;3.00;3.00;;;;;17.18;61.89;101963.44;5068057;28;45426;-71
2022/05/26 00:14:12;;;;;;;;;1.67;0.67;;;;;17.04;61.91;101952.03;5071974;28;45226;-68
2022/05/26 00:16:42;;;;;;;;;3.33;2.00;;;;;17.06;61.71;101960.09;5074464;27;45343;-70
2022/05/26 00:19:08;;;;;;;;;2.00;1.00;;;;;17.24;61.76;101971.06;5070507;27;45392;-68
2022/05/26 00:21:34;;;;;;;;;1.00;1.00;;;;;17.26;61.20;101977.22;5070986;28;45365;-69
2022/05/26 00:23:59;;;;;;;;;1.00;1.00;;;;;17.12;61.75;101974.06;5070690;27;45339;-68
2022/05/26 00:26:25;;;;;;;;;1.00;1.00;;;;;17.10;61.63;101976.09;5072483;28;45815;-69
2022/05/26 00:28:50;;;;;;;;;2.00;2.00;;;;;17.15;61.70;101974.75;5072252;28;48390;-68
2022/05/26 00:31:16;;;;;;;;;2.00;2.00;;;;;17.20;61.27;101978.75;5070941;28;45409;-68
2022/05/26 00:33:42;;;;;;;;;2.00;2.00;;;;;17.15;61.79;101974.75;5076767;27;45251;-69
2022/05/26 00:36:11;;;;;;;;;0.67;0.67;;;;;17.06;61.77;101971.09;5067203;28;45510;-68
2022/05/26 00:38:38;;;;;;;;;3.00;1.33;;;;;16.89;62.58;101992.06;5075278;28;45377;-72
2022/05/26 00:41:07;;;;;;;;;1.33;1.33;;;;;16.80;62.75;101993.03;5068778;28;45426;-68
2022/05/26 00:43:34;;;;;;;;;1.00;0.67;;;;;16.74;62.52;101979.94;5074682;28;45326;-68
2022/05/26 00:46:25;;;;;;;;;1.67;1.00;;;;;16.77;62.84;101995.22;5068602;28;45403;-68
2022/05/26 00:48:59;;;;;;;;;0.00;0.00;;;;;16.90;62.67;101988.31;5073458;27;45431;-69
2022/05/26 00:51:32;;;;;;;;;1.00;1.00;;;;;16.92;61.80;101989.00;5067635;28;45406;-70
2022/05/26 00:54:10;;;;;;;;;2.00;1.00;;;;;16.92;61.82;101993.63;5075798;28;45396;-69
2022/05/26 00:57:05;;;;;;;;;1.33;1.33;;;;;16.80;62.46;101987.56;5073303;28;45259;-68
2022/05/26 00:59:47;;;;;;;;;1.00;1.00;;;;;16.95;61.88;101990.59;5078186;28;46181;-68
2022/05/26 01:02:15;;;;;;;;;1.00;1.00;;;;;16.89;62.07;102000.31;5067702;28;45542;-68
2022/05/26 01:04:49;;;;;;;;;1.00;1.00;;;;;16.95;61.72;101996.91;5076323;27;45591;-69
2022/05/26 01:07:19;;;;;;;;;2.00;1.00;;;;;17.00;61.33;101994.56;5076425;28;45317;-68
2022/05/26 01:09:45;;;;;;;;;0.33;0.33;;;;;16.96;61.58;101993.16;5072610;28;46322;-68
2022/05/26 01:12:11;;;;;;;;;0.00;0.00;;;;;16.95;62.12;102001.56;5074539;28;45409;-69
2022/05/26 01:14:45;;;;;;;;;1.00;1.00;;;;;17.08;61.51;101982.78;5071547;28;45456;-68
2022/05/26 01:17:13;;;;;;;;;0.00;0.00;;;;;17.07;61.70;102001.16;5066750;28;45476;-69
2022/05/26 01:20:07;;;;;;;;;0.00;0.00;;;;;16.86;61.72;102011.63;5063208;28;45460;-69
2022/05/26 01:23:03;;;;;;;;;1.00;0.00;;;;;16.85;62.16;101998.03;5079203;28;45490;-69
2022/05/26 01:25:46;;;;;;;;;0.00;0.00;;;;;16.78;62.52;101999.69;5064265;28;45515;-68
2022/05/26 01:28:56;;;;;;;;;1.00;1.00;;;;;16.61;63.54;102005.03;5079561;27;45423;-69
2022/05/26 01:31:49;;;;;;;;;0.67;0.00;;;;;16.56;64.15;102018.34;5069357;28;46282;-69
2022/05/26 01:34:30;;;;;;;;;0.00;0.00;;;;;16.46;66.26;102017.53;5070762;28;45412;-70
2022/05/26 01:37:08;;;;;;;;;0.33;0.33;;;;;16.32;67.56;102018.94;5078212;28;45274;-68
2022/05/26 01:39:51;;;;;;;;;0.00;0.00;;;;;16.24;69.08;102035.31;5069276;27;45414;-68
2022/05/26 01:42:29;;;;;;;;;2.67;1.00;;;;;16.19;69.02;102004.75;5074282;28;45331;-69
2022/05/26 01:45:09;;;;;;;;;2.00;1.00;;;;;16.21;69.20;102016.44;5063375;28;45320;-69
2022/05/26 01:47:55;;;;;;;;;0.00;0.00;;;;;16.19;70.45;102004.75;5080280;28;45522;-69
2022/05/26 01:50:29;;;;;;;;;1.00;1.00;;;;;16.08;70.97;102013.16;5063678;28;45370;-68
2022/05/26 01:53:20;;;;;;;;;2.00;1.00;;;;;16.13;71.54;102004.50;5080246;27;47274;-69
2022/05/26 01:55:58;;;;;;;;;0.00;0.00;;;;;16.24;71.01;102013.38;5085745;27;45330;-69
2022/05/26 01:58:40;;;;;;;;;0.00;0.00;;;;;16.22;71.17;102018.13;5091858;27;45276;-69
2022/05/26 02:01:14;;;;;;;;;1.00;0.00;;;;;16.22;70.48;102018.13;5089386;27;45610;-68
2022/05/26 02:03:41;;;;;;;;;3.00;2.00;;;;;16.22;70.42;102020.00;5083237;28;45530;-69
2022/05/26 02:06:17;;;;;;;;;1.00;0.67;;;;;16.30;70.42;102020.09;5096390;27;46150;-69
2022/05/26 02:08:48;;;;;;;;;1.33;1.33;;;;;16.38;70.26;102027.56;5092964;27;45529;-69
2022/05/26 02:11:17;;;;;;;;;2.00;2.00;;;;;16.46;70.53;102019.41;5069492;28;45455;-68
2022/05/26 02:13:51;;;;;;;;;3.00;1.00;;;;;16.43;70.19;102011.53;5074665;27;45334;-70
2022/05/26 02:16:45;;;;;;;;;1.00;1.00;;;;;16.38;70.46;102017.44;5069406;28;45356;-68
2022/05/26 02:19:32;;;;;;;;;3.33;1.00;;;;;16.44;69.78;102021.47;5075612;27;45357;-69
2022/05/26 02:22:17;;;;;;;;;1.00;1.00;;;;;16.44;70.08;102021.47;5071877;28;45330;-69
2022/05/26 02:25:10;;;;;;;;;1.00;1.00;;;;;16.34;70.24;102025.16;5079226;28;47070;-69
2022/05/26 02:27:37;;;;;;;;;2.00;0.00;;;;;16.31;69.72;102030.94;5081249;28;45544;-69
2022/05/26 02:30:04;;;;;;;;;2.00;1.00;;;;;16.25;71.13;102020.56;5066198;27;45329;-69
2022/05/26 02:32:30;;;;;;;;;1.00;1.00;;;;;16.33;71.27;102039.88;5077350;28;45495;-68
2022/05/26 02:34:58;;;;;;;;;1.00;1.00;;;;;16.16;72.53;102043.44;5065185;28;45298;-69
2022/05/26 02:37:25;;;;;;;;;1.33;1.33;;;;;16.16;73.68;102043.44;5074653;28;45399;-69
2022/05/26 02:39:51;;;;;;;;;3.33;3.33;;;;;16.06;73.81;102045.38;5065263;27;45386;-69
2022/05/26 02:42:18;;;;;;;;;2.67;2.67;;;;;15.95;74.96;102032.72;5072316;28;45759;-69
2022/05/26 02:44:45;;;;;;;;;2.67;2.67;;;;;16.02;74.28;102034.84;5068498;27;45571;-68
2022/05/26 02:47:21;;;;;;;;;3.00;2.00;;;;;15.97;74.95;102038.06;5071366;28;45272;-68
2022/05/26 02:50:02;;;;;;;;;3.00;1.00;;;;;15.90;75.17;102036.94;5078757;27;45443;-69
2022/05/26 02:53:12;;;;;;;;;2.00;2.00;;;;;15.83;76.01;102038.56;5079396;28;45614;-68
2022/05/26 02:56:08;;;;;;;;;2.00;1.00;;;;;15.77;76.42;102026.34;5071533;28;45501;-69
2022/05/26 02:58:51;;;;;;;;;2.00;2.00;;;;;15.74;75.60;102029.38;5079647;27;45396;-68
2022/05/26 03:01:32;;;;;;;;;3.67;1.00;;;;;15.78;76.23;102033.53;5071825;27;45383;-69
2022/05/26 03:04:10;;;;;;;;;2.00;1.00;;;;;15.84;76.50;102037.56;5095363;27;45429;-69
2022/05/26 03:07:08;;;;;;;;;1.00;1.00;;;;;15.82;77.50;102034.09;5074456;28;45467;-68
2022/05/26 03:09:36;;;;;;;;;2.00;2.00;;;;;15.84;77.72;102029.34;5074057;27;45395;-68
2022/05/26 03:12:01;;;;;;;;;2.67;0.67;;;;;15.75;78.02;102024.75;5076696;28;45397;-68
2022/05/26 03:14:27;;;;;;;;;3.00;1.00;;;;;15.75;77.29;102028.38;5073554;28;45234;-68
2022/05/26 03:16:53;;;;;;;;;1.00;1.00;;;;;15.60;78.46;102026.25;5066610;28;48065;-68
2022/05/26 03:19:19;;;;;;;;;1.00;1.00;;;;;15.55;77.71;102029.47;5071757;27;45375;-68
2022/05/26 03:21:45;;;;;;;;;0.00;0.00;;;;;15.45;78.60;102043.16;5067237;28;45520;-68
2022/05/26 03:24:11;;;;;;;;;1.00;1.00;;;;;15.45;79.53;102047.75;5071547;28;45220;-69
2022/05/26 03:26:37;;;;;;;;;0.00;0.00;;;;;15.44;80.70;102035.94;5073319;28;45503;-68
2022/05/26 03:29:04;;;;;;;;;1.00;1.00;;;;;15.47;80.21;102045.75;5077948;27;45333;-69
2022/05/26 03:31:31;;;;;;;;;0.00;0.00;;;;;15.37;79.04;102040.28;5072438;28;45393;-69
2022/05/26 03:42:11;;;;;;;;;1.00;1.00;;;;;15.25;78.67;102044.22;5074623;28;45316;-69
2022/05/26 03:44:37;;;;;;;;;2.33;0.33;;;;;15.19;78.46;102055.75;5068375;27;45471;-68
2022/05/26 03:47:03;;;;;;;;;0.00;0.00;;;;;15.17;78.30;102041.34;5076965;28;45310;-69
2022/05/26 03:49:28;;;;;;;;;1.67;0.33;;;;;15.14;78.72;102049.84;5082022;27;45376;-69
2022/05/26 03:51:54;;;;;;;;;2.00;2.00;;;;;15.28;79.02;102049.38;5071779;28;45605;-69
2022/05/26 03:54:19;;;;;;;;;2.00;1.00;;;;;15.27;79.66;102044.91;5081895;27;45466;-69
2022/05/26 03:56:45;;;;;;;;;2.00;1.00;;;;;15.14;78.59;102053.44;5074441;28;46501;-68
2022/05/26 03:59:10;;;;;;;;;2.00;0.00;;;;;15.16;77.73;102056.03;5080660;27;45337;-68
2022/05/26 04:01:36;;;;;;;;;0.67;0.67;;;;;15.26;78.36;102065.09;5069607;28;45385;-69
2022/05/26 04:04:01;;;;;;;;;1.00;1.00;;;;;15.38;78.33;102052.97;5083085;27;45349;-68
2022/05/26 04:06:28;;;;;;;;;2.00;0.67;;;;;15.46;77.95;102061.31;5065638;28;46978;-69
2022/05/26 04:08:54;;;;;;;;;2.00;2.00;;;;;15.47;78.46;102063.03;5076077;27;45512;-69
2022/05/26 04:11:21;;;;;;;;;1.00;1.00;;;;;15.54;78.78;102058.72;5071295;28;45304;-69
2022/05/26 04:13:46;;;;;;;;;2.00;2.00;;;;;15.53;78.89;102070.69;5077272;27;45325;-68
2022/05/26 04:16:12;;;;;;;;;0.33;0.33;;;;;15.56;77.09;102075.84;5070029;28;46283;-69
2022/05/26 04:18:37;;;;;;;;;1.00;1.00;;;;;15.68;78.28;102078.44;5075290;27;45265;-69
2022/05/26 04:21:05;;;;;;;;;0.00;0.00;;;;;15.67;77.48;102071.22;5068650;28;45203;-69
2022/05/26 04:23:31;;;;;;;;;2.33;1.00;;;;;15.56;77.25;102070.38;5072895;27;45492;-69
2022/05/26 04:25:56;;;;;;;;;3.33;2.00;;;;;15.47;77.07;102057.56;5067717;28;46273;-69
2022/05/26 04:28:21;;;;;;;;;3.00;1.00;;;;;15.36;76.68;102056.84;5079454;27;45252;-69
2022/05/26 04:30:47;;;;;;;;;1.00;1.00;;;;;15.57;77.52;102073.97;5068402;28;45347;-68
2022/05/26 04:33:12;;;;;;;;;2.00;1.33;;;;;15.67;76.21;102074.81;5081552;27;45310;-69
2022/05/26 04:35:38;;;;;;;;;1.00;1.00;;;;;15.63;76.78;102072.53;5064989;28;45295;-69
2022/05/26 04:38:03;;;;;;;;;1.00;0.67;;;;;15.63;76.58;102086.25;5080078;27;45474;-69
2022/05/26 04:40:29;;;;;;;;;1.00;1.00;;;;;15.73;77.38;102084.31;5064549;28;45435;-70
2022/05/26 04:42:54;;;;;;;;;1.00;1.00;;;;;15.58;76.05;102073.84;5079217;28;45406;-69
2022/05/26 04:45:19;;;;;;;;;2.00;2.00;;;;;15.65;76.29;102097.91;5064374;28;45559;-69
2022/05/26 04:47:45;;;;;;;;;2.00;2.00;;;;;15.72;76.17;102088.06;5081337;28;45422;-69
2022/05/26 04:50:11;;;;;;;;;3.00;1.00;;;;;15.79;77.26;102095.53;5092083;27;45764;-68
2022/05/26 04:52:37;;;;;;;;;1.67;1.00;;;;;15.77;76.30;102092.13;5078552;28;45587;-69
2022/05/26 04:55:04;;;;;;;;;2.00;2.00;;;;;15.77;75.75;102094.84;5075924;28;46164;-69
2022/05/26 04:57:29;;;;;;;;;2.67;1.00;;;;;15.84;76.06;102098.72;5071058;28;45180;-69
2022/05/26 04:59:55;;;;;;;;;1.00;1.00;;;;;15.75;75.38;102098.75;5074155;27;45232;-69
2022/05/26 05:02:22;;;;;;;;;3.00;3.00;;;;;15.75;75.95;102109.69;5080656;28;45397;-69
2022/05/26 05:04:48;;;;;;;;;1.00;1.00;;;;;15.86;74.39;102112.25;5075507;27;45438;-69
2022/05/26 05:07:17;;;;;;;;;1.33;0.00;;;;;15.91;74.66;102115.44;5074918;28;45487;-69
2022/05/26 05:09:44;;;;;;;;;1.67;1.67;;;;;15.88;74.43;102105.63;5072565;28;45237;-69
2022/05/26 05:12:17;;;;;;;;;2.00;2.00;;;;;15.89;74.58;102111.97;5074963;28;45397;-68
2022/05/26 05:14:48;;;;;;;;;0.00;0.00;;;;;15.77;73.97;102104.94;5071107;28;45266;-69
2022/05/26 05:17:16;;;;;;;;;1.00;1.00;;;;;15.68;74.11;102103.97;5073399;28;45368;-69
2022/05/26 05:19:42;;;;;;;;;4.00;3.00;;;;;15.75;73.93;102117.94;5069347;27;45386;-69
2022/05/26 05:22:18;;;;;;;;;1.00;1.00;;;;;15.79;74.41;102116.59;5072578;28;45468;-68
2022/05/26 05:24:50;;;;;;;;;2.67;2.33;;;;;15.89;74.70;102111.97;5067411;28;47045;-69
2022/05/26 05:27:21;;;;;;;;;1.33;1.33;;;;;15.92;73.43;102111.69;5076891;28;45517;-69
2022/05/26 05:29:50;;;;;;;;;3.00;3.00;;;;;15.95;73.72;102109.47;5070128;27;45851;-69
2022/05/26 05:32:21;;;;;;;;;1.00;1.00;;;;;15.99;72.75;102122.91;5070609;28;45600;-69
2022/05/26 05:34:53;;;;;;;;;2.00;1.00;;;;;16.09;73.29;102124.56;5083861;27;45673;-69
2022/05/26 05:37:19;;;;;;;;;2.67;2.33;;;;;16.20;73.79;102123.53;5075560;28;45404;-70
2022/05/26 05:39:45;;;;;;;;;1.67;1.67;;;;;16.15;73.83;102123.97;5066532;27;45273;-69
2022/05/26 05:42:10;;;;;;;;;2.00;1.00;;;;;16.23;73.85;102125.94;5073327;28;45506;-69
2022/05/26 05:44:36;;;;;;;;;0.00;0.00;;;;;16.29;72.23;102122.63;5067142;27;45414;-70
2022/05/26 05:47:03;;;;;;;;;3.67;2.00;;;;;16.40;73.39;102127.03;5074997;28;45668;-69
2022/05/26 05:49:31;;;;;;;;;1.33;1.00;;;;;16.39;71.72;102130.78;5080208;27;45491;-69
2022/05/26 05:52:04;;;;;;;;;1.00;1.00;;;;;16.26;71.11;102134.75;5073638;28;45407;-69
2022/05/26 05:54:31;;;;;;;;;2.33;2.00;;;;;16.20;70.87;102134.50;5094773;27;46872;-69
2022/05/26 05:56:57;;;;;;;;;4.00;1.00;;;;;16.32;71.38;102139.63;5067167;28;45358;-69
2022/05/26 05:59:22;;;;;;;;;3.00;1.00;;;;;16.28;70.89;102138.22;5078444;27;45408;-69
2022/05/26 06:01:47;;;;;;;;;1.67;1.67;;;;;16.35;70.66;102142.06;5081829;28;45319;-69
2022/05/26 06:04:13;;;;;;;;;3.00;2.00;;;;;16.30;70.18;102143.53;5079009;27;45614;-69
2022/05/26 06:06:42;;;;;;;;;4.00;1.33;;;;;16.32;70.82;102150.59;5071629;28;45367;-69
2022/05/26 06:09:09;;;;;;;;;1.00;1.00;;;;;16.49;71.40;102153.53;5088544;27;45375;-69
2022/05/26 06:11:35;;;;;;;;;1.00;1.00;;;;;16.45;71.16;102152.09;5071667;28;45527;-69
2022/05/26 06:14:02;;;;;;;;;3.33;1.00;;;;;16.53;70.88;102161.31;5069608;27;47107;-69
2022/05/26 06:16:28;;;;;;;;;4.00;2.33;;;;;16.40;70.86;102154.47;5070257;28;45218;-69
2022/05/26 06:18:53;;;;;;;;;1.67;1.67;;;;;16.37;70.29;102155.59;5071342;27;45382;-69
2022/05/26 06:21:19;;;;;;;;;3.67;1.00;;;;;16.47;69.91;102170.16;5072519;28;45582;-69
2022/05/26 06:23:44;;;;;;;;;1.33;1.33;;;;;16.61;70.08;102174.28;5080821;27;45409;-69
2022/05/26 06:26:09;;;;;;;;;0.00;0.00;;;;;16.65;69.05;102173.00;5071285;28;45213;-69
2022/05/26 06:31:21;;;;;;;;;2.00;1.00;;;;;16.53;69.05;102172.28;5072298;28;45384;-69
2022/05/26 06:39:14;;;;;;;;;1.00;1.00;;;;;16.30;72.53;102199.25;5074186;28;45373;-70
2022/05/26 06:44:23;;;;;;;;;2.00;2.00;;;;;16.49;73.49;102197.44;5084932;28;45526;-69
2022/05/26 06:46:49;;;;;;;;;0.67;0.00;;;;;16.65;72.36;102209.53;5074892;28;45392;-69
2022/05/26 06:49:15;;;;;;;;;2.00;2.00;;;;;16.78;73.35;102206.41;5084125;27;45407;-69
2022/05/26 06:51:43;;;;;;;;;1.00;1.00;;;;;16.92;71.34;102205.91;5075396;28;45377;-69
2022/05/26 06:54:08;;;;;;;;;3.67;0.33;;;;;17.10;70.28;102204.03;5080233;28;47944;-69
2022/05/26 06:56:34;;;;;;;;;1.00;1.00;;;;;17.07;68.88;102209.84;5072445;28;45470;-69
2022/05/26 06:58:59;;;;;;;;;2.00;2.00;;;;;17.17;68.87;102206.16;5081463;27;45671;-69
2022/05/26 07:01:25;;;;;;;;;2.00;2.00;;;;;17.11;68.16;102200.25;5079471;28;45468;-69
2022/05/26 07:03:50;;;;;;;;;2.00;2.00;;;;;17.24;68.80;102210.00;5080265;27;46984;-69
2022/05/26 07:06:18;;;;;;;;;1.33;1.33;;;;;16.98;72.24;102221.75;5071382;28;45507;-69
2022/05/26 07:08:44;;;;;;;;;0.00;0.00;;;;;17.00;72.35;102208.72;5079734;27;45276;-70
2022/05/26 07:11:10;;;;;;;;;1.00;1.00;;;;;16.96;71.18;102212.78;5070974;28;45325;-69
2022/05/26 07:13:35;;;;;;;;;3.00;2.00;;;;;16.91;72.03;102219.78;5074447;28;46942;-69
2022/05/26 07:16:00;;;;;;;;;1.00;1.00;;;;;16.85;72.98;102221.25;5069259;28;45496;-69
2022/05/26 07:18:27;;;;;;;;;1.00;1.00;;;;;16.62;73.65;102226.28;5078004;27;45223;-70
2022/05/26 07:20:52;;;;;;;;;0.00;0.00;;;;;16.53;72.81;102229.91;5067903;28;45651;-69
2022/05/26 07:23:18;;;;;;;;;1.00;1.00;;;;;16.69;72.87;102232.03;5092420;27;47194;-69
2022/05/26 07:25:43;;;;;;;;;1.00;1.00;;;;;16.65;72.95;102227.88;5066659;28;45326;-69
2022/05/26 07:28:12;;;;;;;;;0.67;0.67;;;;;16.96;71.84;102233.88;5085324;27;45394;-69
2022/05/26 07:30:38;;;;;;;;;0.00;0.00;;;;;17.13;70.91;102231.19;5067857;28;45576;-69
2022/05/26 07:33:04;;;;;;;;;2.67;1.00;;;;;17.29;71.38;102243.38;5073652;27;45326;-69
2022/05/26 07:35:29;;;;;;;;;0.00;0.00;;;;;17.26;71.23;102246.41;5065266;28;45298;-69
2022/05/26 07:43:24;;;;;;;;;1.00;1.00;;;;;17.20;71.58;102252.53;5075156;28;45865;-69
2022/05/26 07:45:50;;;;;;;;;4.00;2.33;;;;;17.20;70.66;102263.53;5066886;28;45231;-69
2022/05/26 07:48:15;;;;;;;;;5.33;4.33;;;;;17.09;69.00;102254.47;5083457;27;45501;-69
2022/05/26 07:50:41;;;;;;;;;4.00;4.00;;;;;16.89;69.00;102257.47;5073682;27;45528;-71
2022/05/26 07:53:06;;;;;;;;;3.00;3.00;;;;;16.78;69.55;102268.69;5072348;28;46976;-72
2022/05/26 07:55:33;;;;;;;;;6.00;6.00;;;;;16.61;71.77;102275.81;5073161;27;45353;-70
2022/05/26 07:57:58;;;;;;;;;6.67;3.67;;;;;16.58;71.81;102276.13;5096665;27;45458;-71
2022/05/26 08:00:24;;;;;;;;;6.00;4.33;;;;;16.39;73.24;102281.66;5073418;27;45245;-71
2022/05/26 08:02:49;;;;;;;;;6.67;4.00;;;;;16.49;73.65;102285.25;5082905;28;45574;-71
2022/05/26 08:05:15;;;;;;;;;4.33;4.33;;;;;16.59;74.81;102278.69;5072370;27;45336;-72
2022/05/26 08:07:41;;;;;;;;;5.00;3.00;;;;;16.86;73.69;102283.38;5076301;28;45484;-70
2022/05/26 08:10:07;;;;;;;;;3.00;3.00;;;;;16.90;72.05;102281.19;5073016;27;45650;-70
2022/05/26 08:12:33;;;;;;;;;5.33;5.00;;;;;16.85;72.79;102292.63;5068631;28;48126;-70
2022/05/26 08:14:58;;;;;;;;;6.00;6.00;;;;;16.81;72.46;102302.16;5071652;28;45337;-70
2022/05/26 08:17:24;;;;;;;;;5.00;4.33;;;;;16.92;71.47;102304.72;5066624;28;45420;-70
2022/05/26 08:19:50;;;;;;;;;4.33;4.00;;;;;17.02;71.33;102301.94;5070088;28;45432;-70
2022/05/26 08:22:17;;;;;;;;;6.00;6.00;;;;;17.13;72.24;102299.84;5077452;28;45597;-70
2022/05/26 08:24:48;;;;;;;;;5.00;5.00;;;;;17.28;72.32;102310.31;5071850;27;45392;-71
2022/05/26 08:27:13;;;;;;;;;5.00;5.00;;;;;17.41;71.81;102300.66;5076082;28;45485;-70
2022/05/26 08:29:41;;;;;;;;;3.00;3.00;;;;;17.56;69.94;102298.25;5070115;27;45258;-70
2022/05/26 08:32:06;;;;;;;;;5.00;5.00;;;;;17.30;67.38;102297.28;5073816;28;45318;-71
2022/05/26 08:34:32;;;;;;;;;4.33;3.33;;;;;17.47;68.27;102299.19;5078634;27;45596;-70
2022/05/26 08:36:57;;;;;;;;;3.33;3.00;;;;;17.50;66.18;102294.25;5068051;28;45579;-70
2022/05/26 08:39:23;;;;;;;;;4.00;4.00;;;;;17.61;67.07;102300.50;5070135;27;45514;-71
2022/05/26 08:41:51;;;;;;;;;4.33;4.33;;;;;17.62;65.90;102297.66;5072768;28;45787;-70
2022/05/26 08:44:26;;;;;;;;;6.00;3.33;;;;;17.88;65.55;102304.09;5082937;28;45302;-71
2022/05/26 08:47:01;;;;;;;;;5.33;4.00;;;;;17.94;64.48;102304.47;5071790;28;45508;-71
2022/05/26 08:49:40;;;;;;;;;4.67;4.00;;;;;18.20;64.12;102308.13;5078819;27;45262;-71
2022/05/26 08:52:05;;;;;;;;;4.33;4.33;;;;;18.20;64.07;102313.63;5074925;28;47797;-71
2022/05/26 08:54:36;;;;;;;;;6.67;5.00;;;;;18.32;63.71;102312.34;5076503;28;45358;-71
2022/05/26 08:57:03;;;;;;;;;5.67;4.67;;;;;18.70;64.62;102304.72;5075862;28;45316;-71
2022/05/26 08:59:44;;;;;;;;;5.00;4.00;;;;;19.07;63.09;102309.91;5074842;28;45322;-71
2022/05/26 09:02:33;;;;;;;;;5.00;5.00;;;;;19.17;60.30;102307.84;5083753;27;46965;-71
2022/05/26 09:05:03;;;;;;;;;8.00;6.33;;;;;19.34;61.99;102307.75;5072490;28;45327;-71
2022/05/26 09:13:11;;;;;;;;;4.33;4.33;;;;;19.68;58.66;102312.31;5076319;28;45875;-71
2022/05/26 09:15:38;;;;;;;;;8.00;8.00;;;;;19.84;58.98;102309.59;5082023;27;46167;-71
2022/05/26 09:18:20;;;;;;;;;6.33;6.33;;;;;19.79;58.00;102314.75;5075798;27;45246;-72
2022/05/26 09:20:48;;;;;;;;;5.00;5.00;;;;;19.48;58.96;102316.41;5064875;27;45440;-71
2022/05/26 09:23:24;;;;;;;;;4.00;4.00;;;;;19.45;57.48;102312.94;5082997;27;45339;-71
2022/05/26 09:25:54;;;;;;;;;3.33;3.33;;;;;19.25;57.16;102321.66;5063680;28;45268;-71
2022/05/26 09:28:43;;;;;;;;;4.67;4.67;;;;;19.38;58.43;102322.91;5079977;27;46082;-72
2022/05/26 09:31:31;;;;;;;;;3.00;3.00;;;;;19.35;56.51;102323.25;5065126;28;45509;-71
2022/05/26 09:34:29;;;;;;;;;8.33;6.33;;;;;19.50;58.32;102336.41;5074617;27;45511;-71
2022/05/26 09:37:00;;;;;;;;;3.67;3.67;;;;;19.41;56.14;102327.22;5069853;28;45456;-71
2022/05/26 09:39:46;;;;;;;;;3.00;3.00;;;;;19.50;56.83;102336.41;5069823;27;45386;-72
2022/05/26 09:42:14;;;;;;;;;1.00;1.00;;;;;19.60;55.76;102348.16;5068169;28;45406;-72
2022/05/26 09:44:51;;;;;;;;;2.00;2.00;;;;;19.68;54.26;102337.13;5076353;28;45477;-72
2022/05/26 09:47:23;;;;;;;;;3.00;3.00;;;;;19.84;54.18;102339.94;5075430;28;45381;-71
2022/05/26 09:49:51;;;;;;;;;3.67;3.00;;;;;19.70;54.13;102341.47;5091744;27;45358;-71
2022/05/26 09:52:20;;;;;;;;;2.33;2.00;;;;;19.81;54.36;102346.63;5076337;28;45533;-71
2022/05/26 09:54:47;;;;;;;;;6.00;3.00;;;;;19.82;54.83;102345.59;5073620;27;46042;-71
2022/05/26 09:57:25;;;;;;;;;4.67;4.33;;;;;20.21;54.97;102342.19;5075475;28;45412;-71
2022/05/26 09:59:51;;;;;;;;;3.00;2.67;;;;;20.02;52.57;102337.00;5074655;27;45474;-70
2022/05/26 10:02:44;;;;;;;;;3.00;1.00;;;;;20.09;54.08;102346.34;5074264;28;45581;-69
2022/05/26 10:05:41;;;;;;;;;2.67;2.67;;;;;20.38;53.44;102348.59;5068653;27;46609;-69
2022/05/26 10:08:25;;;;;;;;;4.00;4.00;;;;;21.24;51.37;102346.84;5074947;27;45833;-69
2022/05/26 10:11:02;;;;;;;;;6.33;5.00;;;;;21.44;50.00;102336.19;5076063;27;45580;-69
2022/05/26 10:13:36;;;;;;;;;3.67;3.67;;;;;21.68;50.89;102343.50;5080649;28;45314;-70
2022/05/26 10:16:05;;;;;;;;;2.00;2.00;;;;;21.29;48.78;102351.81;5068134;28;45714;-69
2022/05/26 10:18:46;;;;;;;;;2.33;2.33;;;;;21.45;48.68;102337.06;5073136;27;45237;-69
2022/05/26 10:21:30;;;;;;;;;3.67;3.67;;;;;20.98;51.31;102352.59;5067207;28;45529;-70
2022/05/26 10:24:08;;;;;;;;;2.33;2.33;;;;;21.53;48.62;102351.72;5084415;27;45603;-69
2022/05/26 10:27:01;;;;;;;;;7.00;7.00;;;;;21.77;50.19;102354.31;5069169;28;46594;-68
2022/05/26 10:29:33;;;;;;;;;3.67;2.00;;;;;21.41;46.99;102361.44;5078072;27;45317;-68
2022/05/26 10:32:03;;;;;;;;;2.00;2.00;;;;;21.77;48.62;102360.91;5079281;27;45502;-69
2022/05/26 10:35:00;;;;;;;;;4.00;4.00;;;;;22.14;46.67;102355.44;5070225;28;45805;-70
2022/05/26 10:37:47;;;;;;;;;2.67;2.67;;;;;22.35;47.17;102352.00;5071034;28;46674;-69
2022/05/26 10:40:15;;;;;;;;;2.00;2.00;;;;;21.91;47.36;102349.06;5081085;28;45290;-70
2022/05/26 10:42:50;;;;;;;;;2.00;1.00;;;;;21.60;49.36;102347.16;5081308;27;45327;-70
2022/05/26 10:45:19;;;;;;;;;4.67;4.67;;;;;22.21;48.08;102359.19;5073970;28;45442;-70
2022/05/26 10:47:51;;;;;;;;;3.00;3.00;;;;;22.31;47.75;102343.19;5076409;28;45334;-70
2022/05/26 10:50:32;;;;;;;;;9.33;8.00;;;;;22.59;47.67;102351.75;5073289;28;45368;-71
2022/05/26 10:53:06;;;;;;;;;1.67;1.00;;;;;21.94;46.17;102354.19;5078398;28;45361;-70
2022/05/26 10:55:47;;;;;;;;;2.00;2.00;;;;;22.27;46.21;102347.41;5070604;27;45352;-70
2022/05/26 10:58:31;;;;;;;;;10.67;10.67;;;;;22.81;46.74;102341.69;5077941;28;46210;-71
2022/05/26 11:01:04;;;;;;;;;11.00;10.00;;;;;23.17;45.59;102347.31;5067301;27;45438;-70
2022/05/26 11:03:36;;;;;;;;;1.00;1.00;;;;;22.50;44.91;102339.88;5081720;27;45468;-70
2022/05/26 11:06:12;;;;;;;;;1.00;1.00;;;;;22.30;46.57;102340.63;5068531;28;45476;-70
2022/05/26 11:08:44;;;;;;;;;2.00;2.00;;;;;22.04;46.73;102341.88;5076055;27;45420;-70
2022/05/26 11:11:42;;;;;;;;;31.75;26.25;;;;;22.45;46.11;102344.28;5082429;27;45452;-71
2022/05/26 11:17:21;;;;;;;;;3.33;2.00;;;;;22.07;45.74;102348.94;5071564;27;45418;-70
2022/05/26 11:17:24;;;;;;;;;2.67;2.67;;;;;21.79;47.27;102342.19;5075141;28;45438;-71
2022/05/26 11:19:49;;;;;;;;;3.00;3.00;;;;;21.85;47.76;102347.00;5070717;28;45477;-70
2022/05/26 11:22:16;;;;;;;;;2.33;1.67;;;;;21.81;47.85;102337.34;5076764;28;45473;-70
2022/05/26 11:24:47;;;;;;;;;2.00;2.00;;;;;22.05;48.15;102343.59;5088608;27;45399;-70
2022/05/26 11:27:25;;;;;;;;;3.00;2.00;;;;;22.17;46.74;102344.03;5076950;28;45377;-70
2022/05/26 11:29:56;;;;;;;;;4.00;2.00;;;;;22.27;46.54;102341.88;5071715;27;45381;-71
2022/05/26 11:38:08;;;;;;;;;2.33;2.33;;;;;22.00;47.32;102332.22;5080417;27;45377;-71
2022/05/26 11:40:49;;;;;;;;;1.00;1.00;;;;;22.11;46.42;102319.84;5065087;28;45333;-71
2022/05/26 11:44:02;;;;;;;;;5.00;5.00;;;;;22.49;48.83;102327.13;5076327;28;45372;-70
2022/05/26 11:47:11;;;;;;;;;3.33;3.00;;;;;22.78;45.97;102329.09;5063649;28;45482;-71
2022/05/26 11:49:42;;;;;;;;;1.00;1.00;;;;;23.89;44.89;102317.69;5078326;28;45496;-71
2022/05/26 11:52:22;;;;;;;;;0.67;0.67;;;;;24.83;43.37;102313.59;5074885;28;45606;-71
2022/05/26 11:54:55;;;;;;;;;1.00;1.00;;;;;24.52;41.27;102324.28;5077546;27;45235;-70
2022/05/26 11:57:33;;;;;;;;;1.00;1.00;;;;;24.01;42.58;102318.91;5078803;28;45487;-70
2022/05/26 12:00:34;;;;;;;;;3.33;1.00;;;;;24.22;41.52;102331.06;5075382;28;45582;-71
2022/05/26 12:03:21;;;;;;;;;2.00;1.00;;;;;24.42;40.97;102321.84;5073655;27;45592;-70
2022/05/26 12:05:57;;;;;;;;;0.00;0.00;;;;;24.47;41.40;102321.25;5068775;28;45268;-71
2022/05/26 12:08:30;;;;;;;;;0.00;0.00;;;;;25.15;40.14;102319.56;5092890;27;45243;-70
2022/05/26 12:11:02;;;;;;;;;13.33;11.00;;;;;25.98;39.67;102308.09;5068031;27;48165;-70
2022/05/26 12:13:29;;;;;;;;;0.33;0.33;;;;;26.26;36.75;102315.41;5077692;27;46123;-70
2022/05/26 12:16:19;;;;;;;;;1.00;0.00;;;;;25.09;38.48;102306.50;5066428;27;45507;-72
2022/05/26 12:18:55;;;;;;;;;0.33;0.33;;;;;25.32;39.59;102301.47;5070997;27;45302;-71
2022/05/26 12:21:29;;;;;;;;;1.00;1.00;;;;;24.90;39.51;102301.66;5070334;28;45505;-71
2022/05/26 12:24:32;;;;;;;;;0.00;0.00;;;;;25.07;38.65;102303.03;5078921;28;46565;-70